sensor_id;sensor_type;location;lat;lon;timestamp;P1;durP1;ratioP1;P2;durP2;ratioP2
14048;SDS011;7099;53.922;10.728;2023-02-02T00:02:57;6.40;;;2.07;;
14048;SDS011;7099;53.922;10.728;2023-02-02T00:07:03;9.47;;;2.07;;
14048;SDS011;7099;53.922;10.728;2023-02-02T00:11:09;11.90;;;2.20;;
14048;SDS011;7099;53.922;10.728;2023-02-02T00:15:15;10.67;;;2.07;;
14048;SDS011;7099;53.922;10.728;2023-02-02T00:19:22;4.20;;;1.50;;
14048;SDS011;7099;53.922;10.728;2023-02-02T00:23:30;6.37;;;2.00;;
14048;SDS011;7099;53.922;10.728;2023-02-02T00:27:36;6.40;;;1.60;;
14048;SDS011;7099;53.922;10.728;2023-02-02T00:31:41;9.90;;;1.87;;
14048;SDS011;7099;53.922;10.728;2023-02-02T00:35:47;5.07;;;1.93;;
14048;SDS011;7099;53.922;10.728;2023-02-02T00:39:56;11.57;;;2.03;;
14048;SDS011;7099;53.922;10.728;2023-02-02T00:44:01;14.53;;;1.70;;
14048;SDS011;7099;53.922;10.728;2023-02-02T00:48:26;14.13;;;1.97;;
14048;SDS011;7099;53.922;10.728;2023-02-02T00:52:31;6.23;;;1.77;;
14048;SDS011;7099;53.922;10.728;2023-02-02T00:56:39;4.60;;;1.67;;
14048;SDS011;7099;53.922;10.728;2023-02-02T01:00:45;15.37;;;2.43;;
14048;SDS011;7099;53.922;10.728;2023-02-02T01:04:51;8.90;;;1.53;;
14048;SDS011;7099;53.922;10.728;2023-02-02T01:08:56;17.87;;;2.57;;
14048;SDS011;7099;53.922;10.728;2023-02-02T01:13:02;10.20;;;1.50;;
14048;SDS011;7099;53.922;10.728;2023-02-02T01:17:08;10.50;;;2.10;;
14048;SDS011;7099;53.922;10.728;2023-02-02T01:21:14;10.43;;;2.00;;
14048;SDS011;7099;53.922;10.728;2023-02-02T01:25:19;8.33;;;2.20;;
14048;SDS011;7099;53.922;10.728;2023-02-02T01:29:25;14.53;;;2.80;;
14048;SDS011;7099;53.922;10.728;2023-02-02T01:33:31;11.00;;;1.70;;
14048;SDS011;7099;53.922;10.728;2023-02-02T01:37:37;9.20;;;2.00;;
14048;SDS011;7099;53.922;10.728;2023-02-02T01:41:43;20.53;;;2.37;;
14048;SDS011;7099;53.922;10.728;2023-02-02T01:45:49;8.43;;;1.83;;
14048;SDS011;7099;53.922;10.728;2023-02-02T01:49:56;12.23;;;1.97;;
14048;SDS011;7099;53.922;10.728;2023-02-02T01:54:02;10.57;;;1.83;;
14048;SDS011;7099;53.922;10.728;2023-02-02T01:58:17;5.73;;;1.57;;
14048;SDS011;7099;53.922;10.728;2023-02-02T02:02:28;9.37;;;1.87;;
14048;SDS011;7099;53.922;10.728;2023-02-02T02:06:35;5.50;;;1.50;;
14048;SDS011;7099;53.922;10.728;2023-02-02T02:10:40;9.40;;;1.93;;
14048;SDS011;7099;53.922;10.728;2023-02-02T02:14:47;15.00;;;1.93;;
14048;SDS011;7099;53.922;10.728;2023-02-02T02:33:34;8.00;;;1.67;;
14048;SDS011;7099;53.922;10.728;2023-02-02T02:42:26;6.70;;;1.53;;
14048;SDS011;7099;53.922;10.728;2023-02-02T02:46:35;15.57;;;2.07;;
14048;SDS011;7099;53.922;10.728;2023-02-02T02:50:41;13.30;;;1.93;;
14048;SDS011;7099;53.922;10.728;2023-02-02T02:54:51;4.87;;;1.07;;
14048;SDS011;7099;53.922;10.728;2023-02-02T03:03:42;6.00;;;1.73;;
14048;SDS011;7099;53.922;10.728;2023-02-02T03:08:46;7.17;;;1.80;;
14048;SDS011;7099;53.922;10.728;2023-02-02T03:12:54;7.20;;;2.27;;
14048;SDS011;7099;53.922;10.728;2023-02-02T03:17:01;17.83;;;2.20;;
14048;SDS011;7099;53.922;10.728;2023-02-02T03:21:07;10.93;;;2.07;;
14048;SDS011;7099;53.922;10.728;2023-02-02T03:25:12;13.10;;;2.30;;
14048;SDS011;7099;53.922;10.728;2023-02-02T03:29:19;15.23;;;2.33;;
14048;SDS011;7099;53.922;10.728;2023-02-02T03:33:25;18.07;;;2.40;;
14048;SDS011;7099;53.922;10.728;2023-02-02T03:37:31;13.23;;;1.93;;
14048;SDS011;7099;53.922;10.728;2023-02-02T03:41:37;13.30;;;2.77;;
14048;SDS011;7099;53.922;10.728;2023-02-02T03:45:42;12.17;;;3.30;;
14048;SDS011;7099;53.922;10.728;2023-02-02T03:49:48;16.53;;;2.63;;
14048;SDS011;7099;53.922;10.728;2023-02-02T03:53:53;15.77;;;2.50;;
14048;SDS011;7099;53.922;10.728;2023-02-02T03:57:59;25.17;;;2.83;;
14048;SDS011;7099;53.922;10.728;2023-02-02T04:02:04;10.13;;;2.20;;
14048;SDS011;7099;53.922;10.728;2023-02-02T04:06:11;12.87;;;2.30;;
14048;SDS011;7099;53.922;10.728;2023-02-02T04:10:16;7.70;;;1.90;;
14048;SDS011;7099;53.922;10.728;2023-02-02T04:14:22;9.60;;;1.90;;
14048;SDS011;7099;53.922;10.728;2023-02-02T04:18:28;12.10;;;2.57;;
14048;SDS011;7099;53.922;10.728;2023-02-02T04:22:33;12.07;;;2.30;;
14048;SDS011;7099;53.922;10.728;2023-02-02T04:26:39;6.40;;;1.60;;
14048;SDS011;7099;53.922;10.728;2023-02-02T04:30:45;13.60;;;2.50;;
14048;SDS011;7099;53.922;10.728;2023-02-02T04:34:51;10.97;;;2.33;;
14048;SDS011;7099;53.922;10.728;2023-02-02T04:38:56;11.33;;;2.37;;
14048;SDS011;7099;53.922;10.728;2023-02-02T04:43:02;10.73;;;2.00;;
14048;SDS011;7099;53.922;10.728;2023-02-02T04:47:07;11.83;;;2.20;;
14048;SDS011;7099;53.922;10.728;2023-02-02T04:51:13;15.73;;;2.67;;
14048;SDS011;7099;53.922;10.728;2023-02-02T04:55:19;10.97;;;2.60;;
14048;SDS011;7099;53.922;10.728;2023-02-02T04:59:26;9.90;;;1.70;;
14048;SDS011;7099;53.922;10.728;2023-02-02T05:03:33;11.93;;;1.97;;
14048;SDS011;7099;53.922;10.728;2023-02-02T05:07:39;8.27;;;2.15;;
14048;SDS011;7099;53.922;10.728;2023-02-02T05:11:45;11.73;;;2.13;;
14048;SDS011;7099;53.922;10.728;2023-02-02T05:15:50;26.23;;;3.50;;
14048;SDS011;7099;53.922;10.728;2023-02-02T05:19:57;16.03;;;2.33;;
14048;SDS011;7099;53.922;10.728;2023-02-02T05:24:03;12.33;;;1.97;;
14048;SDS011;7099;53.922;10.728;2023-02-02T05:28:09;8.13;;;1.80;;
14048;SDS011;7099;53.922;10.728;2023-02-02T05:32:15;12.63;;;1.70;;
14048;SDS011;7099;53.922;10.728;2023-02-02T05:36:21;6.60;;;1.73;;
14048;SDS011;7099;53.922;10.728;2023-02-02T05:40:26;9.30;;;2.07;;
14048;SDS011;7099;53.922;10.728;2023-02-02T05:44:32;18.43;;;1.87;;
14048;SDS011;7099;53.922;10.728;2023-02-02T05:48:37;10.83;;;1.97;;
14048;SDS011;7099;53.922;10.728;2023-02-02T05:52:43;6.23;;;1.23;;
14048;SDS011;7099;53.922;10.728;2023-02-02T05:56:51;7.40;;;1.57;;
14048;SDS011;7099;53.922;10.728;2023-02-02T06:01:00;6.20;;;1.43;;
14048;SDS011;7099;53.922;10.728;2023-02-02T06:05:06;12.32;;;2.13;;
14048;SDS011;7099;53.922;10.728;2023-02-02T06:09:12;9.10;;;2.40;;
14048;SDS011;7099;53.922;10.728;2023-02-02T06:13:17;4.20;;;1.30;;
14048;SDS011;7099;53.922;10.728;2023-02-02T06:17:23;9.17;;;1.93;;
14048;SDS011;7099;53.922;10.728;2023-02-02T06:21:29;3.57;;;1.40;;
14048;SDS011;7099;53.922;10.728;2023-02-02T06:25:35;9.77;;;1.57;;
14048;SDS011;7099;53.922;10.728;2023-02-02T06:29:41;8.40;;;1.60;;
14048;SDS011;7099;53.922;10.728;2023-02-02T06:33:46;5.37;;;1.47;;
14048;SDS011;7099;53.922;10.728;2023-02-02T06:38:00;6.67;;;1.80;;
14048;SDS011;7099;53.922;10.728;2023-02-02T06:42:06;7.10;;;1.83;;
14048;SDS011;7099;53.922;10.728;2023-02-02T06:46:24;10.83;;;2.10;;
14048;SDS011;7099;53.922;10.728;2023-02-02T06:50:30;12.57;;;2.33;;
14048;SDS011;7099;53.922;10.728;2023-02-02T06:54:36;18.70;;;2.67;;
14048;SDS011;7099;53.922;10.728;2023-02-02T06:58:41;12.83;;;4.30;;
14048;SDS011;7099;53.922;10.728;2023-02-02T07:02:47;18.67;;;3.00;;
14048;SDS011;7099;53.922;10.728;2023-02-02T07:06:52;33.80;;;7.60;;
14048;SDS011;7099;53.922;10.728;2023-02-02T07:10:58;18.20;;;4.13;;
14048;SDS011;7099;53.922;10.728;2023-02-02T07:15:19;19.50;;;4.47;;
14048;SDS011;7099;53.922;10.728;2023-02-02T07:19:26;10.13;;;2.43;;
14048;SDS011;7099;53.922;10.728;2023-02-02T07:23:31;15.03;;;3.40;;
14048;SDS011;7099;53.922;10.728;2023-02-02T07:27:38;22.37;;;4.90;;
14048;SDS011;7099;53.922;10.728;2023-02-02T07:31:43;17.10;;;4.60;;
14048;SDS011;7099;53.922;10.728;2023-02-02T07:35:49;25.57;;;5.77;;
14048;SDS011;7099;53.922;10.728;2023-02-02T07:39:55;8.57;;;3.10;;
14048;SDS011;7099;53.922;10.728;2023-02-02T07:44:02;20.23;;;5.30;;
14048;SDS011;7099;53.922;10.728;2023-02-02T07:48:08;29.07;;;7.00;;
14048;SDS011;7099;53.922;10.728;2023-02-02T07:52:13;19.43;;;5.83;;
14048;SDS011;7099;53.922;10.728;2023-02-02T07:56:20;8.13;;;2.37;;
14048;SDS011;7099;53.922;10.728;2023-02-02T08:00:29;16.83;;;4.40;;
14048;SDS011;7099;53.922;10.728;2023-02-02T08:04:35;45.03;;;14.70;;
14048;SDS011;7099;53.922;10.728;2023-02-02T08:08:41;24.00;;;5.97;;
14048;SDS011;7099;53.922;10.728;2023-02-02T08:12:47;39.60;;;11.80;;
14048;SDS011;7099;53.922;10.728;2023-02-02T08:16:55;16.20;;;4.77;;
14048;SDS011;7099;53.922;10.728;2023-02-02T08:21:01;18.37;;;7.70;;
14048;SDS011;7099;53.922;10.728;2023-02-02T08:25:08;11.70;;;3.23;;
14048;SDS011;7099;53.922;10.728;2023-02-02T08:29:14;9.37;;;4.40;;
14048;SDS011;7099;53.922;10.728;2023-02-02T08:33:21;13.87;;;3.40;;
14048;SDS011;7099;53.922;10.728;2023-02-02T08:37:27;13.97;;;1.73;;
14048;SDS011;7099;53.922;10.728;2023-02-02T08:41:32;7.40;;;1.50;;
14048;SDS011;7099;53.922;10.728;2023-02-02T08:45:41;8.90;;;1.50;;
14048;SDS011;7099;53.922;10.728;2023-02-02T08:50:07;8.20;;;1.80;;
14048;SDS011;7099;53.922;10.728;2023-02-02T08:54:13;5.50;;;1.60;;
14048;SDS011;7099;53.922;10.728;2023-02-02T08:58:20;7.80;;;1.73;;
14048;SDS011;7099;53.922;10.728;2023-02-02T09:02:25;10.23;;;1.60;;
14048;SDS011;7099;53.922;10.728;2023-02-02T09:06:34;11.67;;;2.17;;
14048;SDS011;7099;53.922;10.728;2023-02-02T09:10:42;8.57;;;3.73;;
14048;SDS011;7099;53.922;10.728;2023-02-02T09:14:47;17.60;;;6.07;;
14048;SDS011;7099;53.922;10.728;2023-02-02T09:18:54;5.87;;;1.37;;
14048;SDS011;7099;53.922;10.728;2023-02-02T09:23:00;7.83;;;1.60;;
14048;SDS011;7099;53.922;10.728;2023-02-02T09:27:06;8.60;;;1.60;;
14048;SDS011;7099;53.922;10.728;2023-02-02T09:31:11;7.83;;;1.47;;
14048;SDS011;7099;53.922;10.728;2023-02-02T09:35:18;13.40;;;2.17;;
14048;SDS011;7099;53.922;10.728;2023-02-02T09:39:23;10.23;;;1.93;;
14048;SDS011;7099;53.922;10.728;2023-02-02T09:52:52;8.67;;;1.40;;
14048;SDS011;7099;53.922;10.728;2023-02-02T09:57:16;11.47;;;1.60;;
14048;SDS011;7099;53.922;10.728;2023-02-02T10:01:32;7.43;;;3.10;;
14048;SDS011;7099;53.922;10.728;2023-02-02T10:10:03;9.57;;;3.27;;
14048;SDS011;7099;53.922;10.728;2023-02-02T10:14:28;14.00;;;2.80;;
14048;SDS011;7099;53.922;10.728;2023-02-02T10:28:00;17.30;;;5.50;;
14048;SDS011;7099;53.922;10.728;2023-02-02T10:32:19;15.27;;;4.80;;
14048;SDS011;7099;53.922;10.728;2023-02-02T10:36:34;13.67;;;1.37;;
14048;SDS011;7099;53.922;10.728;2023-02-02T10:45:36;10.20;;;2.00;;
14048;SDS011;7099;53.922;10.728;2023-02-02T10:49:44;9.50;;;1.93;;
14048;SDS011;7099;53.922;10.728;2023-02-02T10:54:00;8.30;;;1.60;;
14048;SDS011;7099;53.922;10.728;2023-02-02T10:58:23;5.60;;;2.40;;
14048;SDS011;7099;53.922;10.728;2023-02-02T11:02:34;5.53;;;1.50;;
14048;SDS011;7099;53.922;10.728;2023-02-02T11:06:39;7.27;;;1.50;;
14048;SDS011;7099;53.922;10.728;2023-02-02T11:10:55;8.33;;;2.23;;
14048;SDS011;7099;53.922;10.728;2023-02-02T11:15:23;8.30;;;1.70;;
14048;SDS011;7099;53.922;10.728;2023-02-02T11:19:33;3.50;;;1.37;;
14048;SDS011;7099;53.922;10.728;2023-02-02T11:23:39;4.87;;;1.43;;
14048;SDS011;7099;53.922;10.728;2023-02-02T11:27:45;9.33;;;2.03;;
14048;SDS011;7099;53.922;10.728;2023-02-02T11:31:50;4.40;;;1.90;;
14048;SDS011;7099;53.922;10.728;2023-02-02T11:35:57;9.87;;;1.63;;
14048;SDS011;7099;53.922;10.728;2023-02-02T11:44:32;4.80;;;2.30;;
14048;SDS011;7099;53.922;10.728;2023-02-02T11:48:39;8.03;;;2.80;;
14048;SDS011;7099;53.922;10.728;2023-02-02T11:53:03;6.90;;;1.60;;
14048;SDS011;7099;53.922;10.728;2023-02-02T11:57:14;8.43;;;1.90;;
14048;SDS011;7099;53.922;10.728;2023-02-02T12:01:27;3.87;;;1.27;;
14048;SDS011;7099;53.922;10.728;2023-02-02T12:05:35;7.47;;;1.70;;
14048;SDS011;7099;53.922;10.728;2023-02-02T12:09:41;6.73;;;1.27;;
14048;SDS011;7099;53.922;10.728;2023-02-02T12:18:12;4.43;;;1.50;;
14048;SDS011;7099;53.922;10.728;2023-02-02T12:22:52;7.50;;;1.33;;
14048;SDS011;7099;53.922;10.728;2023-02-02T12:27:40;6.80;;;1.40;;
14048;SDS011;7099;53.922;10.728;2023-02-02T12:37:46;6.13;;;1.60;;
14048;SDS011;7099;53.922;10.728;2023-02-02T12:42:09;5.80;;;1.50;;
14048;SDS011;7099;53.922;10.728;2023-02-02T13:09:27;12.37;;;3.13;;
14048;SDS011;7099;53.922;10.728;2023-02-02T13:13:52;5.30;;;1.30;;
14048;SDS011;7099;53.922;10.728;2023-02-02T13:17:59;5.53;;;1.60;;
14048;SDS011;7099;53.922;10.728;2023-02-02T13:22:21;4.80;;;1.33;;
14048;SDS011;7099;53.922;10.728;2023-02-02T13:26:37;5.63;;;1.47;;
14048;SDS011;7099;53.922;10.728;2023-02-02T13:30:46;12.80;;;2.20;;
14048;SDS011;7099;53.922;10.728;2023-02-02T13:39:16;6.00;;;1.53;;
14048;SDS011;7099;53.922;10.728;2023-02-02T13:43:35;3.80;;;1.40;;
14048;SDS011;7099;53.922;10.728;2023-02-02T13:48:09;9.73;;;1.93;;
14048;SDS011;7099;53.922;10.728;2023-02-02T14:02:00;12.63;;;1.77;;
14048;SDS011;7099;53.922;10.728;2023-02-02T14:06:11;7.37;;;1.77;;
14048;SDS011;7099;53.922;10.728;2023-02-02T14:10:27;6.23;;;1.40;;
14048;SDS011;7099;53.922;10.728;2023-02-02T14:14:36;7.50;;;1.57;;
14048;SDS011;7099;53.922;10.728;2023-02-02T14:22:57;7.53;;;3.13;;
14048;SDS011;7099;53.922;10.728;2023-02-02T14:31:16;9.43;;;2.77;;
14048;SDS011;7099;53.922;10.728;2023-02-02T14:39:29;6.40;;;2.83;;
14048;SDS011;7099;53.922;10.728;2023-02-02T14:43:39;10.73;;;3.80;;
14048;SDS011;7099;53.922;10.728;2023-02-02T14:47:53;9.80;;;2.80;;
14048;SDS011;7099;53.922;10.728;2023-02-02T14:52:04;8.97;;;3.37;;
14048;SDS011;7099;53.922;10.728;2023-02-02T15:00:57;6.20;;;1.77;;
14048;SDS011;7099;53.922;10.728;2023-02-02T15:09:36;34.37;;;17.50;;
14048;SDS011;7099;53.922;10.728;2023-02-02T15:13:42;30.27;;;9.37;;
14048;SDS011;7099;53.922;10.728;2023-02-02T15:22:34;4.90;;;1.70;;
14048;SDS011;7099;53.922;10.728;2023-02-02T15:27:14;7.13;;;2.20;;
14048;SDS011;7099;53.922;10.728;2023-02-02T15:31:28;5.20;;;1.40;;
14048;SDS011;7099;53.922;10.728;2023-02-02T15:35:48;13.10;;;1.90;;
14048;SDS011;7099;53.922;10.728;2023-02-02T15:39:57;6.57;;;2.10;;
14048;SDS011;7099;53.922;10.728;2023-02-02T15:48:32;3.90;;;1.50;;
14048;SDS011;7099;53.922;10.728;2023-02-02T15:52:42;7.47;;;2.47;;
14048;SDS011;7099;53.922;10.728;2023-02-02T15:56:54;11.23;;;2.80;;
14048;SDS011;7099;53.922;10.728;2023-02-02T16:01:11;12.50;;;2.30;;
14048;SDS011;7099;53.922;10.728;2023-02-02T16:05:43;7.73;;;1.97;;
14048;SDS011;7099;53.922;10.728;2023-02-02T16:10:05;6.83;;;2.70;;
14048;SDS011;7099;53.922;10.728;2023-02-02T16:14:13;6.37;;;2.70;;
14048;SDS011;7099;53.922;10.728;2023-02-02T16:18:21;17.30;;;3.30;;
14048;SDS011;7099;53.922;10.728;2023-02-02T16:22:27;9.07;;;2.87;;
14048;SDS011;7099;53.922;10.728;2023-02-02T16:26:34;6.43;;;2.63;;
14048;SDS011;7099;53.922;10.728;2023-02-02T16:30:40;5.30;;;2.93;;
14048;SDS011;7099;53.922;10.728;2023-02-02T16:34:47;13.00;;;2.30;;
14048;SDS011;7099;53.922;10.728;2023-02-02T16:38:54;8.87;;;2.83;;
14048;SDS011;7099;53.922;10.728;2023-02-02T16:43:03;8.80;;;2.20;;
14048;SDS011;7099;53.922;10.728;2023-02-02T16:47:33;5.60;;;1.87;;
14048;SDS011;7099;53.922;10.728;2023-02-02T16:51:41;10.63;;;2.73;;
14048;SDS011;7099;53.922;10.728;2023-02-02T16:55:47;12.10;;;2.90;;
14048;SDS011;7099;53.922;10.728;2023-02-02T16:59:56;9.70;;;2.87;;
14048;SDS011;7099;53.922;10.728;2023-02-02T17:04:15;14.07;;;3.00;;
14048;SDS011;7099;53.922;10.728;2023-02-02T17:08:34;9.00;;;3.17;;
14048;SDS011;7099;53.922;10.728;2023-02-02T17:12:44;8.90;;;4.97;;
14048;SDS011;7099;53.922;10.728;2023-02-02T17:16:50;21.87;;;7.83;;
14048;SDS011;7099;53.922;10.728;2023-02-02T17:20:56;20.57;;;9.40;;
14048;SDS011;7099;53.922;10.728;2023-02-02T17:25:26;17.40;;;8.47;;
14048;SDS011;7099;53.922;10.728;2023-02-02T17:29:45;27.30;;;10.00;;
14048;SDS011;7099;53.922;10.728;2023-02-02T17:33:51;23.07;;;10.40;;
14048;SDS011;7099;53.922;10.728;2023-02-02T17:37:57;18.10;;;8.00;;
14048;SDS011;7099;53.922;10.728;2023-02-02T17:42:03;21.88;;;10.27;;
14048;SDS011;7099;53.922;10.728;2023-02-02T17:46:10;22.40;;;8.97;;
14048;SDS011;7099;53.922;10.728;2023-02-02T17:50:17;24.73;;;8.43;;
14048;SDS011;7099;53.922;10.728;2023-02-02T17:54:23;15.60;;;6.93;;
14048;SDS011;7099;53.922;10.728;2023-02-02T17:58:29;19.73;;;6.90;;
14048;SDS011;7099;53.922;10.728;2023-02-02T18:02:34;21.03;;;7.13;;
14048;SDS011;7099;53.922;10.728;2023-02-02T18:06:40;12.77;;;7.13;;
14048;SDS011;7099;53.922;10.728;2023-02-02T18:10:45;20.93;;;9.10;;
14048;SDS011;7099;53.922;10.728;2023-02-02T18:14:51;19.93;;;10.80;;
14048;SDS011;7099;53.922;10.728;2023-02-02T18:18:57;33.60;;;16.53;;
14048;SDS011;7099;53.922;10.728;2023-02-02T18:23:02;32.67;;;13.53;;
14048;SDS011;7099;53.922;10.728;2023-02-02T18:27:08;26.87;;;12.57;;
14048;SDS011;7099;53.922;10.728;2023-02-02T18:31:14;28.37;;;12.50;;
14048;SDS011;7099;53.922;10.728;2023-02-02T18:35:23;27.90;;;11.77;;
14048;SDS011;7099;53.922;10.728;2023-02-02T18:39:30;30.60;;;13.87;;
14048;SDS011;7099;53.922;10.728;2023-02-02T18:43:36;22.30;;;13.50;;
14048;SDS011;7099;53.922;10.728;2023-02-02T18:47:42;26.83;;;12.67;;
14048;SDS011;7099;53.922;10.728;2023-02-02T18:51:49;25.60;;;10.70;;
14048;SDS011;7099;53.922;10.728;2023-02-02T18:55:54;19.80;;;10.37;;
14048;SDS011;7099;53.922;10.728;2023-02-02T19:00:00;22.63;;;10.03;;
14048;SDS011;7099;53.922;10.728;2023-02-02T19:04:06;19.23;;;10.60;;
14048;SDS011;7099;53.922;10.728;2023-02-02T19:08:12;20.90;;;11.13;;
14048;SDS011;7099;53.922;10.728;2023-02-02T19:12:18;26.90;;;11.20;;
14048;SDS011;7099;53.922;10.728;2023-02-02T19:16:27;28.37;;;13.13;;
14048;SDS011;7099;53.922;10.728;2023-02-02T19:20:36;27.43;;;13.17;;
14048;SDS011;7099;53.922;10.728;2023-02-02T19:24:42;28.57;;;13.20;;
14048;SDS011;7099;53.922;10.728;2023-02-02T19:28:47;27.17;;;13.30;;
14048;SDS011;7099;53.922;10.728;2023-02-02T19:32:53;43.90;;;15.10;;
14048;SDS011;7099;53.922;10.728;2023-02-02T19:37:11;31.40;;;15.00;;
14048;SDS011;7099;53.922;10.728;2023-02-02T19:41:28;33.40;;;16.17;;
14048;SDS011;7099;53.922;10.728;2023-02-02T19:45:33;33.40;;;15.80;;
14048;SDS011;7099;53.922;10.728;2023-02-02T19:49:39;31.57;;;14.73;;
14048;SDS011;7099;53.922;10.728;2023-02-02T19:53:45;22.80;;;11.77;;
14048;SDS011;7099;53.922;10.728;2023-02-02T19:58:00;24.03;;;12.20;;
14048;SDS011;7099;53.922;10.728;2023-02-02T20:02:37;27.03;;;12.77;;
14048;SDS011;7099;53.922;10.728;2023-02-02T20:07:10;19.33;;;10.37;;
14048;SDS011;7099;53.922;10.728;2023-02-02T20:11:34;25.73;;;12.10;;
14048;SDS011;7099;53.922;10.728;2023-02-02T20:15:43;14.70;;;9.40;;
14048;SDS011;7099;53.922;10.728;2023-02-02T20:19:49;20.77;;;7.37;;
14048;SDS011;7099;53.922;10.728;2023-02-02T20:23:54;13.37;;;5.70;;
14048;SDS011;7099;53.922;10.728;2023-02-02T20:28:01;11.10;;;4.93;;
14048;SDS011;7099;53.922;10.728;2023-02-02T20:32:38;8.43;;;4.83;;
14048;SDS011;7099;53.922;10.728;2023-02-02T20:36:45;11.63;;;5.37;;
14048;SDS011;7099;53.922;10.728;2023-02-02T20:40:51;12.33;;;5.50;;
14048;SDS011;7099;53.922;10.728;2023-02-02T20:44:57;6.70;;;4.20;;
14048;SDS011;7099;53.922;10.728;2023-02-02T20:49:02;7.03;;;4.10;;
14048;SDS011;7099;53.922;10.728;2023-02-02T20:53:09;18.13;;;5.00;;
14048;SDS011;7099;53.922;10.728;2023-02-02T20:57:15;11.13;;;4.20;;
14048;SDS011;7099;53.922;10.728;2023-02-02T21:01:21;12.40;;;4.33;;
14048;SDS011;7099;53.922;10.728;2023-02-02T21:05:28;11.33;;;3.43;;
14048;SDS011;7099;53.922;10.728;2023-02-02T21:09:34;11.80;;;3.07;;
14048;SDS011;7099;53.922;10.728;2023-02-02T21:13:40;10.20;;;2.57;;
14048;SDS011;7099;53.922;10.728;2023-02-02T21:17:45;8.47;;;2.80;;
14048;SDS011;7099;53.922;10.728;2023-02-02T21:21:50;13.90;;;2.60;;
14048;SDS011;7099;53.922;10.728;2023-02-02T21:25:56;6.23;;;2.60;;
14048;SDS011;7099;53.922;10.728;2023-02-02T21:30:02;8.97;;;2.50;;
14048;SDS011;7099;53.922;10.728;2023-02-02T21:34:08;14.80;;;3.07;;
14048;SDS011;7099;53.922;10.728;2023-02-02T21:38:14;7.43;;;2.90;;
14048;SDS011;7099;53.922;10.728;2023-02-02T21:42:20;9.70;;;3.00;;
14048;SDS011;7099;53.922;10.728;2023-02-02T21:46:34;7.80;;;2.67;;
14048;SDS011;7099;53.922;10.728;2023-02-02T21:50:42;5.87;;;2.47;;
14048;SDS011;7099;53.922;10.728;2023-02-02T21:54:47;9.83;;;3.20;;
14048;SDS011;7099;53.922;10.728;2023-02-02T21:58:55;13.63;;;3.37;;
14048;SDS011;7099;53.922;10.728;2023-02-02T22:03:04;6.23;;;3.03;;
14048;SDS011;7099;53.922;10.728;2023-02-02T22:07:29;13.33;;;3.60;;
14048;SDS011;7099;53.922;10.728;2023-02-02T22:12:38;7.90;;;3.47;;
14048;SDS011;7099;53.922;10.728;2023-02-02T22:16:27;8.37;;;3.43;;
14048;SDS011;7099;53.922;10.728;2023-02-02T22:20:33;6.63;;;3.50;;
14048;SDS011;7099;53.922;10.728;2023-02-02T22:24:41;8.43;;;3.40;;
14048;SDS011;7099;53.922;10.728;2023-02-02T22:28:54;9.30;;;3.20;;
14048;SDS011;7099;53.922;10.728;2023-02-02T22:33:00;10.33;;;2.87;;
14048;SDS011;7099;53.922;10.728;2023-02-02T22:37:06;10.57;;;3.17;;
14048;SDS011;7099;53.922;10.728;2023-02-02T22:41:11;6.77;;;3.27;;
14048;SDS011;7099;53.922;10.728;2023-02-02T22:45:17;5.23;;;3.23;;
14048;SDS011;7099;53.922;10.728;2023-02-02T22:49:23;7.50;;;2.83;;
14048;SDS011;7099;53.922;10.728;2023-02-02T22:53:28;7.70;;;3.10;;
14048;SDS011;7099;53.922;10.728;2023-02-02T22:57:36;4.40;;;2.63;;
14048;SDS011;7099;53.922;10.728;2023-02-02T23:01:42;7.30;;;2.93;;
14048;SDS011;7099;53.922;10.728;2023-02-02T23:05:47;5.70;;;2.40;;
14048;SDS011;7099;53.922;10.728;2023-02-02T23:09:53;5.80;;;2.77;;
14048;SDS011;7099;53.922;10.728;2023-02-02T23:13:58;7.03;;;2.67;;
14048;SDS011;7099;53.922;10.728;2023-02-02T23:18:04;3.50;;;2.30;;
14048;SDS011;7099;53.922;10.728;2023-02-02T23:22:09;11.37;;;2.97;;
14048;SDS011;7099;53.922;10.728;2023-02-02T23:26:15;9.00;;;2.23;;
14048;SDS011;7099;53.922;10.728;2023-02-02T23:30:20;7.43;;;2.00;;
14048;SDS011;7099;53.922;10.728;2023-02-02T23:34:28;2.87;;;2.27;;
14048;SDS011;7099;53.922;10.728;2023-02-02T23:38:33;3.60;;;2.00;;
14048;SDS011;7099;53.922;10.728;2023-02-02T23:42:39;10.50;;;2.53;;
14048;SDS011;7099;53.922;10.728;2023-02-02T23:46:45;4.37;;;2.33;;
14048;SDS011;7099;53.922;10.728;2023-02-02T23:50:50;4.27;;;2.43;;
14048;SDS011;7099;53.922;10.728;2023-02-02T23:54:57;6.47;;;2.10;;
14048;SDS011;7099;53.922;10.728;2023-02-02T23:59:05;4.40;;;2.43;;
